Time;durP1;ratioP1;P1;durP2;ratioP2;P2;SDS_P1;SDS_P2;PMS_P1;PMS_P2;Temp;Humidity;BMP_temperature;BMP_pressure;BME280_temperature;BME280_humidity;BME280_pressure;Samples;Min_cycle;Max_cycle;Signal;HPM_P1;HPM_P2
2022/01/21 00:00:35;;;;;;;9.23;1.10;;;2.30;99.90;;;;;;4953915;28;20039;-82
2022/01/21 00:03:01;;;;;;;9.52;1.60;;;2.50;99.90;;;;;;4930305;28;20457;-81
2022/01/21 00:05:27;;;;;;;3.55;1.48;;;2.50;99.90;;;;;;4956912;28;20131;-80
2022/01/21 00:07:52;;;;;;;6.85;2.75;;;2.60;99.90;;;;;;4971614;28;20256;-81
2022/01/21 00:10:18;;;;;;;2.80;1.77;;;2.60;99.90;;;;;;5051742;28;20062;-82
2022/01/21 00:12:46;;;;;;;1.88;1.35;;;2.70;99.90;;;;;;4972881;28;20492;-82
2022/01/21 00:15:12;;;;;;;4.93;1.35;;;2.70;99.90;;;;;;4970733;28;20401;-82
2022/01/21 00:17:38;;;;;;;4.55;1.85;;;2.70;99.90;;;;;;4996278;28;20131;-81
2022/01/21 00:31:04;;;;;;;0.80;0.80;;;2.40;99.90;;;;;;4970593;28;20058;-80
2022/01/21 00:33:30;;;;;;;1.27;1.17;;;2.40;99.90;;;;;;4968508;28;20050;-80
2022/01/21 00:35:57;;;;;;;0.80;0.80;;;2.30;99.90;;;;;;4971102;28;20092;-80
2022/01/21 00:38:25;;;;;;;1.85;1.00;;;2.20;99.90;;;;;;4996796;28;20040;-80
2022/01/21 00:40:51;;;;;;;0.70;0.70;;;2.10;99.90;;;;;;4955129;28;20046;-80
2022/01/21 00:45:42;;;;;;;1.05;1.05;;;1.90;99.90;;;;;;4969370;28;20046;-80
2022/01/21 00:48:08;;;;;;;3.13;1.48;;;1.80;99.90;;;;;;5056026;28;20062;-80
2022/01/21 00:50:34;;;;;;;1.20;1.10;;;1.80;99.90;;;;;;4956327;28;20046;-80
2022/01/21 00:53:00;;;;;;;1.20;1.10;;;1.60;99.90;;;;;;4967605;28;20046;-81
2022/01/21 00:55:26;;;;;;;3.25;1.52;;;1.60;99.90;;;;;;4973349;28;20055;-80
2022/01/21 00:57:52;;;;;;;2.88;1.45;;;1.50;99.90;;;;;;4956127;28;20035;-80
2022/01/21 01:00:20;;;;;;;8.70;2.05;;;1.80;99.90;;;;;;4998253;28;20054;-80
2022/01/21 01:02:46;;;;;;;1.35;1.25;;;1.50;99.90;;;;;;4968950;28;20469;-80
2022/01/21 01:05:13;;;;;;;1.45;1.15;;;1.60;99.90;;;;;;4984810;28;20054;-80
2022/01/21 01:07:39;;;;;;;3.10;1.48;;;1.60;99.90;;;;;;4996174;28;20061;-80
2022/01/21 01:10:08;;;;;;;1.60;1.50;;;1.60;99.90;;;;;;4985043;28;20584;-80
2022/01/21 01:21:00;;;;;;;3.33;1.48;;;1.90;99.90;;;;;;4975242;28;20488;-79
2022/01/21 01:23:37;;;;;;;6.60;1.40;;;1.80;99.90;;;;;;5036224;28;20042;-79
2022/01/21 01:28:47;;;;;;;1.27;1.17;;;1.80;99.90;;;;;;4968891;28;20061;-78
2022/01/21 01:31:13;;;;;;;12.32;1.13;;;1.80;99.90;;;;;;4969647;28;20051;-79
2022/01/21 01:33:40;;;;;;;0.90;0.90;;;1.90;99.90;;;;;;4969992;28;20047;-80
2022/01/21 01:36:08;;;;;;;4.40;2.15;;;1.90;99.90;;;;;;4967949;28;20078;-80
2022/01/21 01:41:41;;;;;;;2.00;1.45;;;1.80;99.90;;;;;;5008128;28;20045;-79
2022/01/21 01:49:37;;;;;;;4.88;1.17;;;1.70;99.90;;;;;;4966036;28;20372;-79
2022/01/21 01:52:11;;;;;;;2.75;0.98;;;1.70;99.90;;;;;;4989076;28;20050;-79
2022/01/21 01:54:45;;;;;;;3.00;2.35;;;1.70;99.90;;;;;;4968667;28;20089;-79
2022/01/21 01:57:11;;;;;;;4.00;1.02;;;1.80;99.90;;;;;;4956139;28;20108;-80
2022/01/21 01:59:37;;;;;;;0.80;0.80;;;1.80;99.90;;;;;;4968223;28;20047;-79
2022/01/21 02:02:06;;;;;;;2.15;2.05;;;1.90;99.90;;;;;;4969844;28;20046;-79
2022/01/21 02:04:33;;;;;;;0.70;0.70;;;1.90;99.90;;;;;;4969030;28;20041;-80
2022/01/21 02:06:58;;;;;;;1.23;1.00;;;1.90;99.90;;;;;;4966248;28;20043;-80
2022/01/21 02:09:25;;;;;;;1.10;1.00;;;1.70;99.90;;;;;;4968692;28;20046;-80
2022/01/21 02:11:56;;;;;;;1.45;1.25;;;1.60;99.90;;;;;;4968288;28;20053;-80
2022/01/21 02:14:28;;;;;;;2.20;1.08;;;1.50;99.90;;;;;;4950325;28;20051;-78
2022/01/21 02:22:08;;;;;;;2.70;0.90;;;1.20;99.90;;;;;;4968727;28;20483;-79
2022/01/21 02:24:46;;;;;;;;;;;2.20;99.90;;;;;;4964355;28;20051;-79
2022/01/21 02:27:13;;;;;;;0.70;0.70;;;1.20;99.90;;;;;;4991258;28;20000;-78
2022/01/21 02:29:47;;;;;;;0.95;0.95;;;1.10;99.90;;;;;;4972821;28;20067;-79
2022/01/21 02:32:14;;;;;;;1.00;1.00;;;1.10;99.90;;;;;;4968679;28;20058;-79
2022/01/21 02:34:41;;;;;;;1.00;1.00;;;1.10;99.90;;;;;;4967993;28;20062;-79
2022/01/21 02:37:07;;;;;;;0.80;0.80;;;1.20;99.90;;;;;;4968162;28;20035;-80
2022/01/21 02:39:33;;;;;;;4.97;1.60;;;1.10;99.90;;;;;;4970049;28;20034;-79
2022/01/21 02:41:59;;;;;;;1.13;1.10;;;1.20;99.90;;;;;;4967458;28;20334;-79
2022/01/21 02:44:25;;;;;;;2.17;1.58;;;1.30;99.90;;;;;;4977777;28;20063;-80
2022/01/21 02:47:02;;;;;;;0.80;0.80;;;1.40;99.90;;;;;;4961073;28;20054;-80
2022/01/21 02:49:28;;;;;;;13.00;1.35;;;1.40;99.90;;;;;;4992914;28;20138;-80
2022/01/21 02:51:55;;;;;;;2.22;1.30;;;1.50;99.90;;;;;;4968718;28;20046;-80
2022/01/21 02:54:21;;;;;;;3.25;1.35;;;1.50;99.90;;;;;;4967882;28;20047;-80
2022/01/21 02:56:48;;;;;;;0.70;0.70;;;1.50;99.90;;;;;;4968105;28;20100;-80
2022/01/21 02:59:13;;;;;;;1.40;1.27;;;1.50;99.90;;;;;;4968008;28;20377;-80
2022/01/21 03:01:42;;;;;;;1.58;1.48;;;1.60;99.90;;;;;;4951670;28;20051;-80
2022/01/21 03:04:15;;;;;;;0.82;0.82;;;1.80;99.90;;;;;;5052257;28;20042;-79
2022/01/21 03:06:41;;;;;;;0.82;0.82;;;1.60;99.90;;;;;;4946501;28;20059;-81
2022/01/21 03:09:08;;;;;;;4.70;1.30;;;1.60;99.90;;;;;;4959943;28;20054;-79
2022/01/21 03:11:34;;;;;;;0.80;0.80;;;1.60;99.90;;;;;;5049955;28;20556;-80
2022/01/21 03:14:00;;;;;;;0.70;0.70;;;1.60;99.90;;;;;;4946102;28;20043;-81
2022/01/21 03:16:27;;;;;;;1.10;1.00;;;2.40;99.90;;;;;;4965126;28;20123;-79
2022/01/21 03:18:53;;;;;;;1.17;1.17;;;1.50;99.90;;;;;;4976605;28;20053;-80
2022/01/21 03:21:19;;;;;;;6.43;1.17;;;1.50;99.90;;;;;;4981897;28;20035;-80
2022/01/21 03:23:47;;;;;;;0.98;0.98;;;1.50;99.90;;;;;;4980470;28;20049;-81
2022/01/21 03:26:19;;;;;;;1.20;1.10;;;1.50;99.90;;;;;;4969222;28;20035;-80
2022/01/21 03:28:46;;;;;;;1.95;1.27;;;1.60;99.90;;;;;;4994937;28;20051;-81
2022/01/21 03:31:14;;;;;;;1.77;1.40;;;1.70;99.90;;;;;;4973288;28;20092;-81
2022/01/21 03:33:40;;;;;;;1.40;1.13;;;1.60;99.90;;;;;;5033746;28;20074;-79
2022/01/21 03:36:07;;;;;;;1.10;1.02;;;1.60;99.90;;;;;;4965229;28;20104;-79
2022/01/21 03:38:33;;;;;;;3.78;2.03;;;1.60;99.90;;;;;;4966124;28;20499;-79
2022/01/21 03:40:59;;;;;;;3.47;1.40;;;1.60;99.90;;;;;;4965931;28;20494;-80
2022/01/21 03:43:25;;;;;;;1.38;1.27;;;1.60;99.90;;;;;;4954099;28;20039;-80
2022/01/21 03:45:53;;;;;;;1.13;1.13;;;1.60;99.90;;;;;;4966766;28;20061;-78
2022/01/21 03:48:19;;;;;;;1.33;1.25;;;1.50;99.90;;;;;;4960090;28;20490;-79
2022/01/21 03:50:46;;;;;;;1.63;1.52;;;1.40;99.90;;;;;;4966234;28;20057;-79
2022/01/21 03:53:12;;;;;;;6.07;1.42;;;1.40;99.90;;;;;;4958156;28;20043;-79
2022/01/21 03:55:38;;;;;;;1.00;1.00;;;1.30;99.90;;;;;;4958548;28;20048;-78
2022/01/21 03:58:06;;;;;;;0.90;0.90;;;1.20;99.90;;;;;;4966168;28;20069;-78
2022/01/21 04:00:39;;;;;;;3.08;1.17;;;1.10;99.90;;;;;;4951206;28;20126;-78
2022/01/21 04:03:05;;;;;;;1.00;0.90;;;1.10;99.90;;;;;;4969491;28;20035;-79
2022/01/21 04:05:31;;;;;;;0.90;0.90;;;1.00;99.90;;;;;;4983255;28;20046;-79
2022/01/21 04:07:57;;;;;;;1.83;1.48;;;1.10;99.90;;;;;;4953454;28;20050;-79
2022/01/21 04:10:23;;;;;;;0.93;0.93;;;1.10;99.90;;;;;;4951436;28;20064;-79
2022/01/21 04:12:49;;;;;;;1.02;1.02;;;1.20;99.90;;;;;;4964943;28;20457;-79
2022/01/21 04:15:15;;;;;;;1.17;1.08;;;1.20;99.90;;;;;;5034479;28;20043;-79
2022/01/21 04:17:41;;;;;;;0.80;0.80;;;1.00;99.90;;;;;;4973682;28;20045;-79
2022/01/21 04:20:09;;;;;;;1.02;1.02;;;1.00;99.90;;;;;;4968382;28;20051;-79
2022/01/21 04:22:35;;;;;;;0.82;0.82;;;1.00;99.90;;;;;;4967322;28;20038;-78
2022/01/21 04:25:01;;;;;;;;;;;1.00;99.90;;;;;;4963967;28;20477;-79
2022/01/21 04:27:27;;;;;;;1.27;1.20;;;1.00;99.90;;;;;;4969930;28;19961;-79
2022/01/21 04:29:53;;;;;;;1.27;1.17;;;1.00;99.90;;;;;;4969324;28;20428;-79
2022/01/21 04:32:20;;;;;;;1.10;1.05;;;0.90;99.90;;;;;;4936019;28;20043;-79
2022/01/21 04:34:46;;;;;;;4.93;1.23;;;0.90;99.90;;;;;;4966150;28;20484;-79
2022/01/21 04:37:14;;;;;;;1.25;1.15;;;0.80;99.90;;;;;;4967922;28;20042;-80
2022/01/21 04:39:47;;;;;;;1.20;1.10;;;0.80;99.90;;;;;;4965247;28;20035;-80
2022/01/21 04:47:38;;;;;;;0.90;0.90;;;0.70;99.90;;;;;;4970771;28;20447;-79
2022/01/21 04:50:13;;;;;;;0.93;0.93;;;0.70;99.90;;;;;;4964941;28;20055;-79
2022/01/21 04:52:40;;;;;;;2.55;1.83;;;0.80;99.90;;;;;;4962657;28;20055;-81
2022/01/21 04:55:07;;;;;;;0.90;0.90;;;0.90;99.90;;;;;;4982523;28;20054;-79
2022/01/21 04:57:33;;;;;;;4.30;1.73;;;1.00;99.90;;;;;;4969288;28;20058;-79
2022/01/21 04:59:59;;;;;;;1.67;1.58;;;1.10;99.90;;;;;;4970408;28;20030;-80
2022/01/21 05:02:26;;;;;;;4.18;1.17;;;1.20;99.90;;;;;;4956611;28;20129;-79
2022/01/21 05:04:52;;;;;;;2.05;1.70;;;1.20;99.90;;;;;;4965110;28;20134;-79
2022/01/21 05:07:22;;;;;;;2.63;1.27;;;1.20;99.90;;;;;;4955779;28;20125;-80
2022/01/21 05:09:48;;;;;;;1.63;1.23;;;1.20;99.90;;;;;;4967491;28;20050;-79
2022/01/21 05:12:19;;;;;;;;;;;1.40;99.90;;;;;;4981299;28;20043;-80
2022/01/21 05:17:30;;;;;;;1.70;1.38;;;1.40;99.90;;;;;;4970316;28;20051;-80
2022/01/21 05:20:01;;;;;;;1.50;1.00;;;1.50;99.90;;;;;;5044505;28;20171;-79
2022/01/21 05:22:27;;;;;;;1.58;1.13;;;1.60;99.90;;;;;;4968944;28;20126;-79
2022/01/21 05:24:52;;;;;;;3.53;1.13;;;1.50;99.90;;;;;;4952175;28;20129;-79
2022/01/21 05:27:18;;;;;;;1.83;1.42;;;1.50;99.90;;;;;;4968850;28;20470;-79
2022/01/21 05:29:44;;;;;;;1.75;1.27;;;1.50;99.90;;;;;;4967946;28;20050;-79
2022/01/21 05:32:10;;;;;;;3.35;1.33;;;1.60;99.90;;;;;;4969535;28;20109;-80
2022/01/21 05:34:35;;;;;;;2.25;1.20;;;1.70;99.90;;;;;;4967107;28;20059;-80
2022/01/21 05:37:01;;;;;;;7.30;1.17;;;1.60;99.90;;;;;;4960147;28;20070;-79
2022/01/21 05:39:27;;;;;;;2.58;1.73;;;1.60;99.90;;;;;;4967347;28;20093;-79
2022/01/21 05:41:53;;;;;;;1.15;0.95;;;1.50;99.90;;;;;;4956358;28;20035;-80
2022/01/21 05:46:57;;;;;;;0.93;0.93;;;1.50;99.90;;;;;;4967745;28;20046;-80
2022/01/21 05:49:25;;;;;;;2.85;2.28;;;1.60;99.90;;;;;;4966410;28;20047;-80
2022/01/21 05:52:02;;;;;;;5.97;1.45;;;1.70;99.90;;;;;;4997283;28;20180;-79
2022/01/21 05:54:28;;;;;;;0.80;0.80;;;1.80;99.90;;;;;;4967001;28;20070;-79
2022/01/21 05:56:54;;;;;;;1.13;1.10;;;1.90;99.90;;;;;;4966023;28;20078;-80
2022/01/21 05:59:20;;;;;;;;;;;1.90;99.90;;;;;;4953402;28;20122;-80
2022/01/21 06:01:46;;;;;;;1.13;1.02;;;2.00;99.90;;;;;;5052636;28;20008;-79
2022/01/21 06:04:12;;;;;;;4.40;1.27;;;2.00;99.90;;;;;;4968518;28;20160;-80
2022/01/21 06:06:38;;;;;;;1.83;1.73;;;2.00;99.90;;;;;;4979226;28;20483;-80
2022/01/21 06:09:05;;;;;;;2.22;1.30;;;2.00;99.90;;;;;;4967400;28;20057;-79
2022/01/21 06:11:31;;;;;;;1.20;1.10;;;2.00;99.90;;;;;;4966152;28;20051;-80
2022/01/21 06:13:57;;;;;;;5.05;1.67;;;2.00;99.90;;;;;;4972412;28;20058;-80
2022/01/21 06:16:23;;;;;;;10.20;2.05;;;2.00;99.90;;;;;;4968652;28;20039;-80
2022/01/21 06:18:49;;;;;;;0.90;0.90;;;2.00;99.90;;;;;;4951855;28;20104;-79
2022/01/21 06:21:15;;;;;;;1.15;1.08;;;2.00;99.90;;;;;;4952157;28;20122;-79
2022/01/21 06:23:41;;;;;;;2.95;1.95;;;2.00;99.90;;;;;;4981070;28;20439;-79
2022/01/21 06:26:08;;;;;;;0.93;0.93;;;2.00;99.90;;;;;;4967273;28;20530;-79
2022/01/21 06:28:34;;;;;;;0.90;0.90;;;2.00;99.90;;;;;;4951882;28;20099;-79
2022/01/21 06:31:00;;;;;;;7.13;1.38;;;2.00;99.90;;;;;;4952277;28;20431;-79
2022/01/21 06:33:25;;;;;;;0.93;0.90;;;2.00;99.90;;;;;;4967833;28;20114;-80
2022/01/21 06:35:52;;;;;;;;;;;2.00;99.90;;;;;;4966201;28;20099;-79
2022/01/21 06:38:20;;;;;;;3.22;1.50;;;2.00;99.90;;;;;;4996952;28;19922;-79
2022/01/21 06:40:47;;;;;;;0.80;0.80;;;1.90;99.90;;;;;;4974662;28;20113;-79
2022/01/21 06:43:13;;;;;;;1.60;1.00;;;1.90;99.90;;;;;;4957395;28;20042;-79
2022/01/21 06:45:39;;;;;;;4.40;1.33;;;2.20;99.90;;;;;;4953793;28;20043;-79
2022/01/21 06:48:05;;;;;;;4.57;1.23;;;1.80;99.90;;;;;;4977082;28;20042;-79
2022/01/21 06:50:33;;;;;;;1.05;0.88;;;1.90;99.90;;;;;;4951901;28;20050;-79
2022/01/21 06:52:59;;;;;;;1.77;1.20;;;1.70;99.90;;;;;;4991023;28;20051;-79
2022/01/21 06:55:25;;;;;;;1.98;0.95;;;1.70;99.90;;;;;;4963978;28;20039;-79
2022/01/21 06:57:50;;;;;;;1.40;1.30;;;1.60;99.90;;;;;;4963126;28;20103;-79
2022/01/21 07:00:19;;;;;;;1.17;1.17;;;1.60;99.90;;;;;;4967837;28;20034;-79
2022/01/21 07:02:50;;;;;;;0.82;0.82;;;1.50;99.90;;;;;;4965455;28;20039;-78
2022/01/21 07:05:17;;;;;;;1.00;1.00;;;1.40;99.90;;;;;;4994617;28;20425;-79
2022/01/21 07:07:43;;;;;;;3.97;1.25;;;1.40;99.90;;;;;;4959253;28;20039;-79
2022/01/21 07:10:11;;;;;;;;;;;1.30;99.90;;;;;;4981421;28;20051;-79
2022/01/21 07:12:38;;;;;;;3.15;0.90;;;1.30;99.90;;;;;;4977452;28;19918;-78
2022/01/21 07:15:06;;;;;;;1.42;1.33;;;1.30;99.90;;;;;;4966830;28;20062;-79
2022/01/21 07:17:33;;;;;;;1.10;1.05;;;1.20;99.90;;;;;;4967767;28;20050;-79
2022/01/21 07:19:58;;;;;;;4.10;1.48;;;1.30;99.90;;;;;;4967101;28;20126;-79
2022/01/21 07:22:24;;;;;;;1.08;1.08;;;1.30;99.90;;;;;;4967256;28;20125;-79
2022/01/21 07:24:50;;;;;;;0.90;0.90;;;1.30;99.90;;;;;;4969049;28;20043;-79
2022/01/21 07:27:16;;;;;;;0.90;0.90;;;1.40;99.90;;;;;;4949595;28;20428;-79
2022/01/21 07:29:42;;;;;;;;;;;1.40;99.90;;;;;;4946753;28;20043;-80
2022/01/21 07:32:08;;;;;;;2.35;1.67;;;1.60;99.90;;;;;;5058819;28;19995;-78
2022/01/21 07:34:34;;;;;;;1.48;1.38;;;1.60;99.90;;;;;;4964137;28;20047;-78
2022/01/21 07:37:01;;;;;;;4.15;1.30;;;1.70;99.90;;;;;;5029579;28;20748;-78
2022/01/21 07:39:26;;;;;;;0.88;0.88;;;1.80;99.90;;;;;;4967747;28;20039;-79
2022/01/21 07:41:52;;;;;;;1.10;0.73;;;1.70;99.90;;;;;;4953420;28;20104;-78
2022/01/21 07:44:18;;;;;;;1.58;1.48;;;1.70;99.90;;;;;;4965247;28;20126;-79
2022/01/21 07:46:46;;;;;;;3.25;1.23;;;1.80;99.90;;;;;;4967387;28;20057;-79
2022/01/21 07:49:14;;;;;;;2.55;2.00;;;1.80;99.90;;;;;;4962410;28;20048;-80
2022/01/21 07:51:41;;;;;;;1.15;1.05;;;1.80;99.90;;;;;;5047807;28;20377;-79
2022/01/21 07:54:07;;;;;;;1.10;1.00;;;1.80;99.90;;;;;;4967499;28;20043;-79
2022/01/21 07:56:34;;;;;;;3.33;1.38;;;1.80;99.90;;;;;;4961634;28;20546;-79
2022/01/21 07:59:06;;;;;;;4.97;1.38;;;1.90;99.90;;;;;;4965934;28;20079;-80
2022/01/21 08:01:32;;;;;;;1.95;0.95;;;1.90;99.90;;;;;;4960886;28;20051;-80
2022/01/21 08:03:58;;;;;;;1.60;1.50;;;2.10;99.90;;;;;;4970819;28;20092;-80
2022/01/21 08:06:24;;;;;;;6.63;2.88;;;2.10;99.90;;;;;;4968733;28;20409;-80
2022/01/21 08:08:49;;;;;;;12.48;1.48;;;2.20;99.90;;;;;;4969943;28;20082;-79
2022/01/21 08:11:15;;;;;;;2.40;1.27;;;2.20;99.90;;;;;;4948962;28;20112;-79
2022/01/21 08:13:42;;;;;;;6.22;2.03;;;2.20;99.90;;;;;;4971655;28;20062;-79
2022/01/21 08:16:08;;;;;;;0.90;0.75;;;2.10;99.90;;;;;;4979811;28;20051;-79
2022/01/21 08:18:35;;;;;;;3.90;0.95;;;2.10;99.90;;;;;;4968102;28;20130;-80
2022/01/21 08:21:02;;;;;;;2.88;1.58;;;2.10;99.90;;;;;;4973153;28;20104;-79
2022/01/21 08:23:28;;;;;;;2.08;1.48;;;2.40;99.90;;;;;;4964451;28;20046;-79
2022/01/21 08:25:54;;;;;;;0.95;0.95;;;2.20;99.90;;;;;;5052798;28;20491;-79
2022/01/21 08:28:19;;;;;;;10.07;1.33;;;2.20;99.90;;;;;;4971218;28;20043;-79
2022/01/21 08:30:45;;;;;;;3.83;1.98;;;2.20;99.90;;;;;;4968066;28;20125;-79
2022/01/21 08:33:11;;;;;;;5.13;2.20;;;2.20;99.90;;;;;;5050379;28;20119;-80
2022/01/21 08:35:37;;;;;;;11.15;1.90;;;2.20;99.90;;;;;;4966376;28;20043;-79
2022/01/21 08:38:04;;;;;;;1.77;1.15;;;2.20;99.90;;;;;;4995387;28;20060;-79
2022/01/21 08:40:30;;;;;;;2.10;1.55;;;2.30;99.90;;;;;;4961251;28;20104;-80
2022/01/21 08:42:55;;;;;;;7.18;1.55;;;2.50;99.90;;;;;;4964291;28;20046;-80
2022/01/21 08:45:22;;;;;;;3.72;1.75;;;2.80;99.90;;;;;;4971763;28;20058;-80
2022/01/21 08:47:49;;;;;;;5.00;1.50;;;2.80;99.90;;;;;;4967900;28;20043;-80
2022/01/21 08:50:18;;;;;;;5.80;1.48;;;2.90;99.90;;;;;;5003469;28;20504;-80
2022/01/21 08:52:44;;;;;;;1.52;1.08;;;3.10;99.90;;;;;;4997638;28;20054;-79
2022/01/21 08:55:16;;;;;;;2.13;1.50;;;3.20;99.90;;;;;;4968975;28;20139;-80
2022/01/21 08:57:44;;;;;;;5.75;1.48;;;3.30;99.90;;;;;;4970596;28;20046;-80
2022/01/21 09:00:16;;;;;;;1.45;1.35;;;3.40;99.90;;;;;;4969711;28;20111;-80
2022/01/21 09:02:43;;;;;;;4.72;1.55;;;3.40;99.90;;;;;;4972413;28;20357;-80
2022/01/21 09:05:09;;;;;;;;;;;3.50;99.90;;;;;;4959934;28;20043;-80
2022/01/21 09:07:35;;;;;;;5.68;1.77;;;3.50;99.90;;;;;;5045190;28;20400;-79
2022/01/21 09:10:02;;;;;;;8.77;1.23;;;3.50;99.90;;;;;;4979730;28;20151;-80
2022/01/21 09:12:29;;;;;;;2.53;1.42;;;3.60;99.90;;;;;;4974526;28;20047;-79
2022/01/21 09:14:55;;;;;;;3.00;2.47;;;3.70;99.90;;;;;;4999646;28;20142;-79
2022/01/21 09:17:20;;;;;;;2.72;1.10;;;3.70;99.90;;;;;;5059084;28;20050;-79
2022/01/21 09:19:49;;;;;;;2.72;1.23;;;3.80;99.90;;;;;;4989790;28;20059;-80
2022/01/21 09:22:15;;;;;;;1.23;1.13;;;3.70;99.90;;;;;;4975401;28;20046;-79
2022/01/21 09:24:41;;;;;;;1.88;1.20;;;3.80;99.90;;;;;;4989383;28;20147;-80
2022/01/21 09:27:08;;;;;;;2.97;1.23;;;3.80;99.90;;;;;;4967609;28;20042;-82
2022/01/21 09:29:35;;;;;;;5.65;1.48;;;3.90;99.90;;;;;;4975326;28;20058;-81
2022/01/21 09:32:04;;;;;;;4.97;1.73;;;3.80;99.90;;;;;;4971789;28;20051;-81
2022/01/21 09:34:30;;;;;;;10.60;1.65;;;3.90;99.90;;;;;;4989073;28;20108;-82
2022/01/21 09:36:57;;;;;;;;;;;3.90;99.90;;;;;;4997119;28;20049;-81
2022/01/21 09:39:24;;;;;;;2.08;1.30;;;3.90;99.90;;;;;;4971268;28;19922;-80
2022/01/21 09:41:50;;;;;;;1.88;1.42;;;4.00;99.90;;;;;;5012542;28;20042;-80
2022/01/21 09:44:17;;;;;;;;;;;4.20;99.90;;;;;;5037062;28;20047;-79
2022/01/21 09:46:47;;;;;;;1.15;1.05;;;4.10;99.90;;;;;;4993064;28;19921;-80
2022/01/21 09:49:46;;;;;;;9.52;2.25;;;4.20;99.90;;;;;;4974776;28;20047;-80
2022/01/21 09:52:07;;;;;;;2.03;1.48;;;4.30;99.90;;;;;;4955371;28;20587;-82
2022/01/21 09:54:37;;;;;;;1.38;1.25;;;4.30;99.90;;;;;;4962635;28;20047;-78
2022/01/21 09:57:05;;;;;;;7.28;1.80;;;4.40;99.90;;;;;;4969093;28;20074;-80
2022/01/21 09:59:34;;;;;;;9.35;1.15;;;4.40;99.90;;;;;;4964938;28;20077;-79
2022/01/21 10:02:02;;;;;;;1.98;1.40;;;4.40;99.90;;;;;;4969566;28;20039;-81
2022/01/21 10:04:41;;;;;;;2.95;1.13;;;4.50;99.90;;;;;;5003080;28;20070;-79
2022/01/21 10:07:10;;;;;;;2.90;1.42;;;4.30;99.90;;;;;;4972633;28;20034;-79
2022/01/21 10:09:38;;;;;;;2.35;1.88;;;4.40;99.90;;;;;;4980450;28;20572;-79
2022/01/21 10:12:04;;;;;;;1.67;0.90;;;4.30;99.90;;;;;;4980322;28;20039;-80
2022/01/21 10:14:30;;;;;;;;;;;4.30;99.90;;;;;;4983310;28;20051;-79
2022/01/21 10:16:58;;;;;;;14.68;2.03;;;4.30;99.90;;;;;;4970191;28;19926;-80
2022/01/21 10:19:27;;;;;;;3.45;2.42;;;4.30;99.90;;;;;;4985072;28;20446;-80
2022/01/21 10:22:03;;;;;;;4.03;1.90;;;4.40;99.90;;;;;;5014387;28;20047;-78
2022/01/21 10:24:30;;;;;;;;;;;4.60;99.90;;;;;;5054586;28;20091;-77
2022/01/21 10:26:57;;;;;;;2.05;1.52;;;4.70;99.90;;;;;;4995838;28;20379;-76
2022/01/21 10:29:33;;;;;;;6.57;2.00;;;4.90;99.90;;;;;;5053640;28;20499;-75
2022/01/21 10:32:01;;;;;;;2.60;1.92;;;5.00;99.90;;;;;;4966347;28;20043;-77
2022/01/21 10:34:41;;;;;;;1.60;0.88;;;5.20;99.90;;;;;;4969587;28;20054;-82
2022/01/21 10:37:36;;;;;;;4.47;1.40;;;5.20;99.90;;;;;;4964111;28;20047;-82
2022/01/21 10:40:04;;;;;;;10.15;2.55;;;5.30;99.90;;;;;;4997204;28;20051;-81
2022/01/21 10:42:31;;;;;;;4.10;2.45;;;5.30;99.90;;;;;;5001377;28;20046;-80
2022/01/21 10:44:58;;;;;;;3.63;2.40;;;5.50;99.90;;;;;;4965842;28;20042;-78
2022/01/21 10:47:32;;;;;;;1.20;1.10;;;5.40;99.90;;;;;;4985565;28;20062;-78
2022/01/21 10:50:03;;;;;;;1.30;1.20;;;5.40;99.90;;;;;;4961807;28;20177;-77
2022/01/21 10:52:35;;;;;;;6.97;2.22;;;5.40;99.90;;;;;;4968918;28;20133;-77
2022/01/21 10:55:01;;;;;;;3.08;1.52;;;5.50;99.90;;;;;;4989754;28;20058;-78
2022/01/21 10:57:30;;;;;;;1.67;0.90;;;5.60;99.90;;;;;;4993118;28;20493;-78
2022/01/21 11:00:01;;;;;;;6.40;1.80;;;5.80;99.90;;;;;;4967049;28;20484;-82
2022/01/21 11:02:42;;;;;;;2.20;1.80;;;5.80;99.90;;;;;;4996618;28;20039;-81
2022/01/21 11:05:30;;;;;;;4.20;1.42;;;5.90;99.90;;;;;;4956182;28;20440;-81
2022/01/21 11:08:01;;;;;;;1.33;1.23;;;6.00;99.90;;;;;;4947641;28;20117;-81
2022/01/21 11:10:33;;;;;;;2.25;1.33;;;6.10;99.90;;;;;;4971903;28;20099;-82
2022/01/21 11:12:59;;;;;;;1.70;1.25;;;6.20;99.90;;;;;;4979584;28;20062;-83
2022/01/21 11:15:36;;;;;;;3.03;1.98;;;6.20;99.90;;;;;;5077864;28;20130;-82
2022/01/21 11:18:05;;;;;;;9.88;1.45;;;6.30;99.90;;;;;;4986473;28;20119;-82
2022/01/21 11:20:42;;;;;;;1.35;1.00;;;6.50;99.90;;;;;;4958559;28;20055;-79
2022/01/21 11:23:09;;;;;;;1.20;1.00;;;6.50;99.90;;;;;;4951861;28;20096;-80
2022/01/21 11:25:50;;;;;;;6.25;1.27;;;6.60;99.90;;;;;;4968198;28;20607;-79
2022/01/21 11:28:25;;;;;;;2.33;1.45;;;6.50;99.90;;;;;;4961799;28;20061;-80
2022/01/21 11:30:52;;;;;;;1.30;1.20;;;6.60;99.90;;;;;;4969229;28;20725;-81
2022/01/21 11:33:18;;;;;;;1.30;1.20;;;6.60;99.90;;;;;;4934297;28;20476;-76
2022/01/21 11:35:47;;;;;;;9.18;2.08;;;6.60;99.90;;;;;;4964558;28;20042;-75
2022/01/21 11:38:14;;;;;;;4.50;1.50;;;6.80;99.90;;;;;;4968683;28;20046;-77
2022/01/21 11:40:40;;;;;;;2.40;1.67;;;6.90;99.90;;;;;;5055053;28;20042;-77
2022/01/21 11:43:09;;;;;;;1.73;1.10;;;6.80;99.90;;;;;;5054259;28;20038;-77
2022/01/21 11:50:41;;;;;;;0.85;0.85;;;6.90;99.90;;;;;;4987513;28;20055;-77
2022/01/21 11:53:07;;;;;;;6.05;1.48;;;6.90;99.90;;;;;;4984213;28;20134;-77
2022/01/21 11:55:41;;;;;;;1.20;1.02;;;6.90;99.90;;;;;;5034682;28;20451;-77
2022/01/21 11:58:23;;;;;;;2.25;1.17;;;6.80;99.90;;;;;;4968265;28;20054;-77
2022/01/21 12:00:51;;;;;;;5.10;2.25;;;6.80;99.90;;;;;;4972883;28;20097;-76
2022/01/21 12:03:21;;;;;;;8.93;2.47;;;6.70;99.90;;;;;;4986846;28;20464;-76
2022/01/21 12:05:47;;;;;;;2.90;1.65;;;6.70;99.90;;;;;;4956291;28;20373;-77
2022/01/21 12:08:13;;;;;;;5.22;1.63;;;6.70;99.90;;;;;;4973136;28;20362;-76
2022/01/21 12:10:43;;;;;;;6.60;1.70;;;6.70;99.90;;;;;;4972139;28;20484;-78
2022/01/21 12:13:18;;;;;;;1.95;1.35;;;6.80;99.90;;;;;;4971397;28;20054;-77
2022/01/21 12:18:59;;;;;;;6.40;2.22;;;6.80;99.90;;;;;;4999898;28;20085;-77
2022/01/21 12:21:28;;;;;;;2.30;1.38;;;6.90;99.90;;;;;;5004615;28;20043;-77
2022/01/21 12:23:54;;;;;;;2.17;1.05;;;6.90;99.90;;;;;;4955506;28;20043;-76
2022/01/21 12:26:23;;;;;;;7.97;1.55;;;6.90;99.90;;;;;;4968059;28;20038;-78
2022/01/21 12:28:52;;;;;;;3.50;1.63;;;6.90;99.90;;;;;;4989002;28;20058;-76
2022/01/21 12:31:21;;;;;;;8.23;2.17;;;6.90;99.90;;;;;;4968508;28;20046;-77
2022/01/21 12:34:14;;;;;;;3.33;1.60;;;6.80;99.90;;;;;;4954674;28;20051;-78
2022/01/21 12:36:41;;;;;;;3.72;1.98;;;6.80;99.90;;;;;;4958046;28;20492;-76
2022/01/21 12:39:40;;;;;;;2.50;1.85;;;7.00;99.90;;;;;;4971983;28;20051;-77
2022/01/21 12:42:35;;;;;;;2.33;1.30;;;6.80;99.90;;;;;;4993979;28;20046;-77
2022/01/21 12:45:05;;;;;;;2.25;1.13;;;6.90;99.90;;;;;;4969055;28;20051;-79
2022/01/21 12:47:39;;;;;;;5.07;1.45;;;6.80;99.90;;;;;;4981103;28;20047;-78
2022/01/21 12:50:33;;;;;;;2.53;1.25;;;6.80;99.90;;;;;;4969945;28;20449;-78
2022/01/21 12:58:19;;;;;;;12.55;2.90;;;6.80;99.90;;;;;;4988011;28;20042;-78
2022/01/21 13:00:46;;;;;;;7.53;2.28;;;6.70;99.90;;;;;;5002351;28;20057;-77
2022/01/21 13:03:22;;;;;;;8.30;1.90;;;6.80;99.90;;;;;;4963306;28;20043;-76
2022/01/21 13:06:11;;;;;;;1.33;1.23;;;6.80;99.90;;;;;;4977699;28;20047;-75
2022/01/21 13:08:52;;;;;;;4.35;1.83;;;6.80;99.90;;;;;;4956186;28;20099;-82
2022/01/21 13:11:23;;;;;;;9.48;2.17;;;6.80;99.90;;;;;;4968279;28;20067;-81
2022/01/21 13:14:33;;;;;;;2.78;1.25;;;6.80;99.90;;;;;;4969618;28;20053;-80
2022/01/21 13:17:01;;;;;;;1.60;1.23;;;6.70;99.90;;;;;;4992038;28;20039;-81
2022/01/21 13:19:29;;;;;;;2.13;1.20;;;6.70;99.90;;;;;;4995210;28;20055;-78
2022/01/21 13:21:55;;;;;;;3.25;2.45;;;6.80;99.90;;;;;;4983729;28;20054;-80
2022/01/21 13:24:31;;;;;;;1.90;1.30;;;6.70;99.90;;;;;;4972193;28;20495;-82
2022/01/21 13:26:58;;;;;;;3.80;1.30;;;6.80;99.90;;;;;;4959253;28;20053;-82
2022/01/21 13:29:34;;;;;;;3.70;1.30;;;6.70;99.90;;;;;;5052052;28;20038;-82
2022/01/21 13:32:03;;;;;;;3.47;1.42;;;6.70;99.90;;;;;;4994213;28;20055;-81
2022/01/21 13:34:36;;;;;;;4.30;1.40;;;6.60;99.90;;;;;;4938586;28;20039;-82
2022/01/21 13:37:07;;;;;;;3.33;1.63;;;6.50;99.90;;;;;;4969353;28;20384;-80
2022/01/21 13:39:38;;;;;;;3.22;1.80;;;6.40;99.90;;;;;;4967211;28;20045;-80
2022/01/21 13:42:15;;;;;;;7.63;1.90;;;6.30;99.90;;;;;;4971402;28;20098;-78
2022/01/21 13:44:44;;;;;;;15.40;2.63;;;6.30;99.90;;;;;;4972825;28;20050;-81
2022/01/21 13:47:31;;;;;;;5.63;1.25;;;6.30;99.90;;;;;;4970130;28;20043;-78
2022/01/21 13:50:05;;;;;;;22.83;1.92;;;6.30;99.90;;;;;;4954323;28;20039;-80
2022/01/21 13:52:52;;;;;;;2.15;1.55;;;6.40;99.90;;;;;;4986890;28;20034;-78
2022/01/21 13:55:28;;;;;;;;;;;6.50;99.90;;;;;;4981813;28;20039;-79
2022/01/21 13:57:56;;;;;;;7.43;1.02;;;6.50;99.90;;;;;;4966916;28;19919;-80
2022/01/21 14:00:33;;;;;;;2.88;1.85;;;6.60;99.90;;;;;;4974764;28;20030;-78
2022/01/21 14:03:26;;;;;;;1.30;1.13;;;6.60;99.90;;;;;;5053510;28;20065;-80
2022/01/21 14:05:59;;;;;;;10.32;1.95;;;6.60;99.90;;;;;;4974032;28;20050;-79
2022/01/21 14:08:48;;;;;;;4.45;1.92;;;6.70;99.90;;;;;;4969965;28;20043;-81
2022/01/21 14:11:26;;;;;;;1.27;1.17;;;6.60;99.90;;;;;;4954451;28;20039;-80